Kelley, IA (50134)

10:12 PM CDT on September 21, 2014 (GMT -0500)
Ames Municipal | Change Station
CLOSE
Current Station
Airport
Location: Ames,
Elevation: 955 ft
Nearby Weather Stations

Elev 955 ft 41.99 °N, 93.62 °W | Updated 19 minutes ago

Clear
Clear
55 °F
Feels Like 55 °F
N
6
Wind Variable Wind from North

Today
High -- | Low -- °F
--% Chance of Precip.
Yesterday
High -- | Low -- °F
Precip. -- in
7:01 AM 7:13 PM
Waning Crescent, 4% visible
Pressure 30.22 in
Visibility 10.0 miles
Clouds Clear
Dew Point 49 °F
Humidity 80%
Rainfall 0.00 in
Snow Depth Not available.
UV 0 out of 12
Pollen 5.30 out of 12
Air Quality Not available.
Flu Activity Not available.
METAR KAMW 220253Z AUTO 35005KT 10SM CLR 13/09 A3023 RMK AO2 SLP234 T01280094 53018

More Conditions Fewer Conditions

Pressure 30.22 in
Visibility 10.0 miles
Clouds Clear
Dew Point 49 °F
Humidity 80%
Rainfall 0.00 in
Snow Depth Not available.
UV 0 out of 12
Pollen 5.30 out of 12
Air Quality Not available.
Flu Activity Not available.
METAR KAMW 220253Z AUTO 35005KT 10SM CLR 13/09 A3023 RMK AO2 SLP234 T01280094 53018

More Conditions Fewer Conditions

10-Day Weather Forecast

Almanac

Astronomy

Sep. 21, 2014 Rise Set
Actual Time 7:01 AM CDT 7:13 PM CDT
Civil Twilight 6:33 AM CDT 7:41 PM CDT
Nautical Twilight 6:00 AM CDT 8:14 PM CDT
Astronomical Twilight 5:27 AM CDT 8:47 PM CDT
Moon 4:33 AM CDT (9/21) 5:51 PM CDT (9/21)
Length of Visible Light 13h 08m
Length of Day
12h 12m
Tomorrow will be 2m 48s shorter.
Waning Crescent, 4% of the Moon is Illuminated
Today
Waning Crescent
Sep 24
New
Oct 1
First Quarter
Oct 8
Full
Oct 15
Last Quarter

Today's Extremes

State Highs State Lows

Community

WunderPhotos

Upload Photos

1,755,371 photos uploaded!

WunderBlogs® & News

Nearby

Snow Depth

Station Depth Elevation
No new snow has been reported.

Earthquake Activity

City Distance Mag. Time & Date
No recent earthquake activity has been reported nearby.
Minimum magnitude displayed is 2.5.

Coastal Water Temperatures

Place Temperature
No Stations Reporting

Nearby Weather Stations